createdAt,value
2023-02-02T00:00:01.193Z,4.82
2023-02-02T00:02:48.078Z,1.38
2023-02-02T00:05:16.310Z,7.70
2023-02-02T00:07:44.453Z,2.00
2023-02-02T00:10:12.646Z,1.30
2023-02-02T00:15:26.456Z,3.30
2023-02-02T00:17:54.839Z,2.28
2023-02-02T00:20:24.299Z,3.25
2023-02-02T00:22:52.753Z,2.25
2023-02-02T00:25:21.068Z,0.52
2023-02-02T00:27:49.783Z,0.57
2023-02-02T00:30:18.265Z,1.10
2023-02-02T00:32:48.900Z,2.78
2023-02-02T00:35:35.717Z,0.85
2023-02-02T00:38:03.951Z,0.40
2023-02-02T00:40:32.102Z,4.43
2023-02-02T00:43:00.290Z,2.53
2023-02-02T00:45:28.599Z,2.15
2023-02-02T00:47:56.855Z,1.15
2023-02-02T00:50:24.997Z,1.23
2023-02-02T00:52:53.310Z,1.92
2023-02-02T00:55:22.892Z,4.32
2023-02-02T00:57:51.513Z,1.90
2023-02-02T01:00:57.266Z,2.30
2023-02-02T01:03:44.428Z,1.45
2023-02-02T01:06:12.640Z,1.40
2023-02-02T01:08:41.234Z,3.90
2023-02-02T01:11:28.109Z,2.08
2023-02-02T01:13:56.153Z,1.95
2023-02-02T01:16:25.085Z,1.65
2023-02-02T01:18:53.525Z,0.70
2023-02-02T01:21:40.129Z,0.90
2023-02-02T01:24:08.656Z,2.53
2023-02-02T01:26:37.996Z,0.70
2023-02-02T01:29:06.207Z,0.73
2023-02-02T01:31:53.172Z,4.07
2023-02-02T01:34:21.407Z,1.98
2023-02-02T01:36:49.789Z,0.93
2023-02-02T01:39:18.027Z,4.32
2023-02-02T01:41:46.395Z,0.95
2023-02-02T01:44:52.947Z,5.00
2023-02-02T01:47:43.551Z,4.68
2023-02-02T01:50:13.715Z,1.75
2023-02-02T01:52:46.431Z,2.88
2023-02-02T01:55:17.580Z,1.88
2023-02-02T01:58:27.364Z,2.88
2023-02-02T02:01:33.666Z,4.25
2023-02-02T02:04:02.166Z,1.65
2023-02-02T02:06:30.701Z,4.50
2023-02-02T02:09:06.758Z,3.60
2023-02-02T02:11:36.414Z,0.95
2023-02-02T02:14:27.634Z,4.93
2023-02-02T02:17:26.568Z,14.05
2023-02-02T02:20:41.066Z,1.50
2023-02-02T02:24:17.764Z,5.25
2023-02-02T02:26:57.060Z,4.65
2023-02-02T02:30:05.891Z,2.28
2023-02-02T02:32:53.093Z,5.22
2023-02-02T02:35:50.498Z,4.07
2023-02-02T02:38:33.804Z,4.68
2023-02-02T02:41:07.909Z,3.03
2023-02-02T02:43:44.236Z,7.15
2023-02-02T02:46:13.116Z,5.93
2023-02-02T02:48:45.331Z,3.00
2023-02-02T02:51:35.929Z,4.18
2023-02-02T02:54:04.371Z,2.13
2023-02-02T02:56:42.273Z,2.17
2023-02-02T02:59:21.984Z,2.53
2023-02-02T03:02:02.660Z,2.08
2023-02-02T03:05:00.833Z,0.98
2023-02-02T03:07:41.865Z,3.60
2023-02-02T03:10:13.174Z,2.28
2023-02-02T03:12:49.828Z,1.60
2023-02-02T03:18:27.729Z,4.85
2023-02-02T03:23:42.514Z,1.95
2023-02-02T03:26:10.834Z,1.05
2023-02-02T03:28:39.268Z,6.05
2023-02-02T03:31:08.040Z,3.65
2023-02-02T03:33:38.238Z,4.72
2023-02-02T03:36:07.035Z,2.90
2023-02-02T03:38:35.520Z,1.75
2023-02-02T03:41:05.237Z,3.72
2023-02-02T03:43:51.984Z,2.10
2023-02-02T03:46:20.255Z,2.13
2023-02-02T03:48:48.570Z,3.55
2023-02-02T03:54:02.488Z,5.05
2023-02-02T03:56:30.627Z,1.38
2023-02-02T03:58:58.900Z,1.95
2023-02-02T04:01:30.631Z,3.58
2023-02-02T04:03:59.710Z,2.42
2023-02-02T04:06:28.034Z,3.20
2023-02-02T04:08:56.338Z,2.28
2023-02-02T04:11:24.558Z,2.13
2023-02-02T04:14:29.907Z,6.90
2023-02-02T04:16:58.076Z,1.58
2023-02-02T04:19:26.223Z,5.07
2023-02-02T04:21:54.572Z,2.88
2023-02-02T04:24:22.708Z,3.97
2023-02-02T04:26:51.041Z,1.25
2023-02-02T04:29:19.245Z,3.85
2023-02-02T04:31:47.551Z,2.47
2023-02-02T04:34:15.812Z,4.22
2023-02-02T04:36:45.002Z,1.98
2023-02-02T04:39:13.185Z,1.70
2023-02-02T04:41:41.351Z,2.13
2023-02-02T04:44:15.671Z,3.28
2023-02-02T04:47:02.181Z,3.75
2023-02-02T04:49:30.752Z,3.00
2023-02-02T04:51:58.924Z,1.85
2023-02-02T04:55:04.464Z,2.88
2023-02-02T04:57:32.671Z,4.13
2023-02-02T05:00:00.809Z,3.90
2023-02-02T05:02:28.933Z,1.45
2023-02-02T05:05:15.589Z,4.30
2023-02-02T05:07:43.835Z,5.55
2023-02-02T05:10:12.382Z,4.70
2023-02-02T05:12:58.904Z,11.02
2023-02-02T05:15:45.643Z,5.15
2023-02-02T05:18:13.780Z,1.45
2023-02-02T05:20:41.971Z,3.72
2023-02-02T05:23:28.361Z,2.67
2023-02-02T05:25:57.202Z,3.05
2023-02-02T05:28:25.940Z,4.05
2023-02-02T05:30:54.308Z,1.30
2023-02-02T05:33:22.539Z,6.40
2023-02-02T05:35:50.772Z,4.13
2023-02-02T05:38:18.814Z,3.45
2023-02-02T05:40:49.336Z,3.42
2023-02-02T05:43:17.569Z,2.30
2023-02-02T05:45:46.334Z,4.63
2023-02-02T05:48:14.967Z,2.72
2023-02-02T05:50:45.817Z,6.32
2023-02-02T05:53:33.246Z,4.15
2023-02-02T05:56:03.863Z,8.65
2023-02-02T05:58:31.913Z,2.88
2023-02-02T06:00:59.926Z,1.98
2023-02-02T06:03:28.045Z,6.88
2023-02-02T06:06:14.850Z,2.30
2023-02-02T06:09:01.361Z,4.88
2023-02-02T06:11:29.435Z,2.28
2023-02-02T06:13:57.606Z,0.77
2023-02-02T06:16:25.883Z,3.50
2023-02-02T06:18:54.334Z,3.08
2023-02-02T06:21:24.733Z,8.90
2023-02-02T06:23:53.100Z,1.38
2023-02-02T06:26:21.056Z,1.80
2023-02-02T06:28:50.837Z,3.28
2023-02-02T06:31:20.095Z,2.47
2023-02-02T06:33:59.023Z,5.93
2023-02-02T06:36:28.126Z,3.50
2023-02-02T06:38:57.514Z,2.45
2023-02-02T06:41:26.258Z,3.55
2023-02-02T06:43:54.240Z,0.57
2023-02-02T06:46:22.357Z,1.10
2023-02-02T06:48:50.332Z,1.17
2023-02-02T06:51:18.595Z,2.92
2023-02-02T06:53:49.812Z,1.77
2023-02-02T06:56:17.948Z,5.70
2023-02-02T06:58:45.888Z,3.40
2023-02-02T07:01:15.200Z,1.95
2023-02-02T07:03:43.292Z,3.55
2023-02-02T07:06:13.200Z,1.83
2023-02-02T07:08:41.327Z,4.00
2023-02-02T07:11:15.906Z,1.52
2023-02-02T07:13:45.865Z,3.25
2023-02-02T07:16:15.112Z,1.58
2023-02-02T07:18:44.164Z,3.60
2023-02-02T07:21:18.419Z,3.72
2023-02-02T07:23:47.095Z,1.92
2023-02-02T07:26:16.536Z,2.17
2023-02-02T07:28:45.424Z,1.83
2023-02-02T07:31:16.674Z,7.28
2023-02-02T07:33:46.109Z,5.00
2023-02-02T07:36:19.292Z,4.82
2023-02-02T07:38:48.903Z,0.38
2023-02-02T07:41:17.061Z,4.28
2023-02-02T07:43:48.398Z,2.70
2023-02-02T07:46:17.955Z,4.63
2023-02-02T07:48:46.074Z,2.72
2023-02-02T07:51:17.616Z,3.22
2023-02-02T07:53:51.289Z,5.47
2023-02-02T07:56:24.882Z,1.48
2023-02-02T07:58:55.135Z,4.80
2023-02-02T08:01:26.463Z,2.92
2023-02-02T08:03:56.582Z,3.67
2023-02-02T08:06:28.585Z,2.33
2023-02-02T08:08:56.880Z,1.85
2023-02-02T08:11:26.298Z,1.13
2023-02-02T08:13:59.338Z,1.63
2023-02-02T08:16:28.813Z,2.80
2023-02-02T08:18:56.974Z,3.33
2023-02-02T08:21:25.297Z,7.00
2023-02-02T08:23:54.283Z,3.22
2023-02-02T08:26:27.456Z,2.60
2023-02-02T08:29:06.016Z,3.67
2023-02-02T08:31:36.505Z,0.63
2023-02-02T08:34:05.091Z,4.53
2023-02-02T08:36:35.655Z,4.32
2023-02-02T08:39:09.295Z,5.07
2023-02-02T08:41:38.006Z,3.70
2023-02-02T08:44:11.688Z,4.53
2023-02-02T08:46:43.320Z,6.13
2023-02-02T08:51:57.492Z,2.45
2023-02-02T08:54:25.620Z,4.35
2023-02-02T08:56:53.624Z,3.42
2023-02-02T08:59:21.662Z,3.70
2023-02-02T09:01:51.406Z,6.43
2023-02-02T09:04:19.505Z,6.22
2023-02-02T09:06:47.807Z,3.35
2023-02-02T09:09:17.066Z,4.47
2023-02-02T09:11:47.943Z,6.90
2023-02-02T09:14:16.036Z,9.55
2023-02-02T09:16:44.073Z,15.30
2023-02-02T09:19:12.597Z,17.52
2023-02-02T09:21:40.813Z,11.52
2023-02-02T09:24:10.826Z,13.25
2023-02-02T09:26:40.692Z,6.82
2023-02-02T09:29:12.744Z,6.95
2023-02-02T09:31:40.893Z,11.00
2023-02-02T09:34:11.767Z,9.10
2023-02-02T09:36:40.785Z,12.50
2023-02-02T09:39:10.294Z,9.77
2023-02-02T09:41:38.424Z,13.52
2023-02-02T09:44:12.298Z,9.95
2023-02-02T09:47:16.868Z,12.63
2023-02-02T09:49:51.785Z,7.28
2023-02-02T09:52:28.489Z,13.63
2023-02-02T09:55:55.895Z,9.27
2023-02-02T09:58:31.589Z,8.18
2023-02-02T10:01:08.864Z,9.70
2023-02-02T10:03:54.170Z,14.73
2023-02-02T10:06:37.174Z,16.50
2023-02-02T10:09:17.285Z,12.93
2023-02-02T10:11:58.552Z,14.60
2023-02-02T10:14:33.136Z,13.52
2023-02-02T10:17:28.418Z,14.98
2023-02-02T10:20:03.165Z,11.75
2023-02-02T10:22:34.687Z,18.20
2023-02-02T10:25:02.728Z,12.23
2023-02-02T10:27:41.291Z,15.55
2023-02-02T10:30:45.001Z,9.05
2023-02-02T10:33:27.389Z,13.00
2023-02-02T10:36:22.988Z,11.38
2023-02-02T10:39:00.701Z,10.00
2023-02-02T10:41:46.297Z,8.60
2023-02-02T10:44:20.642Z,14.40
2023-02-02T10:46:55.684Z,15.60
2023-02-02T10:49:33.567Z,16.38
2023-02-02T10:52:01.621Z,14.48
2023-02-02T10:54:59.135Z,16.27
2023-02-02T10:58:07.232Z,12.82
2023-02-02T11:00:54.323Z,14.15
2023-02-02T11:03:33.086Z,12.88
2023-02-02T11:06:22.784Z,12.55
2023-02-02T11:09:00.794Z,17.98
2023-02-02T11:11:29.591Z,14.23
2023-02-02T11:14:15.379Z,10.23
2023-02-02T11:16:45.995Z,10.73
2023-02-02T11:19:20.235Z,16.88
2023-02-02T11:22:12.185Z,10.07
2023-02-02T11:24:40.178Z,10.05
2023-02-02T11:27:23.816Z,7.85
2023-02-02T11:29:57.418Z,6.95
2023-02-02T11:32:35.428Z,9.10
2023-02-02T11:35:19.205Z,5.88
2023-02-02T11:37:53.276Z,4.78
2023-02-02T11:40:34.732Z,6.00
2023-02-02T11:43:26.375Z,9.00
2023-02-02T11:46:04.243Z,9.07
2023-02-02T11:48:40.029Z,5.82
2023-02-02T11:54:18.327Z,11.23
2023-02-02T11:59:40.267Z,9.30
2023-02-02T12:02:21.870Z,9.32
2023-02-02T12:04:53.470Z,6.45
2023-02-02T12:07:32.332Z,5.30
2023-02-02T12:10:20.064Z,6.30
2023-02-02T12:13:05.703Z,6.20
2023-02-02T12:16:08.967Z,7.85
2023-02-02T12:19:11.139Z,8.40
2023-02-02T12:22:03.644Z,6.80
2023-02-02T12:25:03.975Z,6.13
2023-02-02T12:28:11.580Z,2.55
2023-02-02T12:31:05.619Z,7.07
2023-02-02T12:33:54.889Z,9.20
2023-02-02T12:36:56.093Z,4.15
2023-02-02T12:39:56.197Z,2.97
2023-02-02T12:42:49.048Z,3.50
2023-02-02T12:45:30.768Z,9.57
2023-02-02T12:48:14.220Z,8.50
2023-02-02T12:50:42.222Z,5.15
2023-02-02T12:53:37.228Z,5.03
2023-02-02T12:56:17.614Z,9.40
2023-02-02T12:58:51.778Z,11.32
2023-02-02T13:01:40.507Z,7.15
2023-02-02T13:04:51.594Z,8.93
2023-02-02T13:07:37.834Z,6.57
2023-02-02T13:10:18.669Z,5.75
2023-02-02T13:12:58.197Z,9.38
2023-02-02T13:15:52.036Z,7.45
2023-02-02T13:18:40.790Z,4.10
2023-02-02T13:21:17.027Z,7.57
2023-02-02T13:23:47.592Z,12.35
2023-02-02T13:26:17.491Z,7.43
2023-02-02T13:29:21.002Z,4.15
2023-02-02T13:31:58.356Z,7.47
2023-02-02T13:34:44.661Z,10.48
2023-02-02T13:37:18.950Z,9.95
2023-02-02T13:40:13.750Z,6.88
2023-02-02T13:43:07.855Z,7.65
2023-02-02T13:45:41.595Z,7.32
2023-02-02T13:48:12.380Z,13.50
2023-02-02T13:50:50.628Z,7.25
2023-02-02T13:53:46.911Z,10.55
2023-02-02T13:56:47.669Z,8.95
2023-02-02T13:59:39.739Z,6.82
2023-02-02T14:02:33.114Z,9.88
2023-02-02T14:05:04.083Z,7.40
2023-02-02T14:07:43.468Z,5.82
2023-02-02T14:10:37.989Z,6.93
2023-02-02T14:13:28.832Z,8.95
2023-02-02T14:15:58.468Z,9.32
2023-02-02T14:18:52.390Z,11.45
2023-02-02T14:21:32.747Z,4.25
2023-02-02T14:24:03.658Z,8.38
2023-02-02T14:26:48.395Z,6.38
2023-02-02T14:29:36.053Z,10.25
2023-02-02T14:32:11.714Z,6.93
2023-02-02T14:34:41.919Z,5.82
2023-02-02T14:37:25.042Z,10.13
2023-02-02T14:40:07.925Z,5.47
2023-02-02T14:43:15.803Z,8.48
2023-02-02T14:45:45.940Z,6.32
2023-02-02T14:48:18.379Z,8.40
2023-02-02T14:50:55.860Z,7.45
2023-02-02T14:53:39.039Z,6.97
2023-02-02T14:56:15.554Z,5.75
2023-02-02T14:58:46.372Z,7.38
2023-02-02T15:01:21.815Z,8.88
2023-02-02T15:04:21.999Z,6.15
2023-02-02T15:06:54.210Z,8.82
2023-02-02T15:09:28.519Z,3.78
2023-02-02T15:12:01.292Z,6.95
2023-02-02T15:14:35.943Z,9.45
2023-02-02T15:17:13.405Z,5.57
2023-02-02T15:22:29.048Z,6.65
2023-02-02T15:25:00.895Z,6.53
2023-02-02T15:27:29.683Z,9.38
2023-02-02T15:30:04.007Z,9.50
2023-02-02T15:32:32.377Z,7.13
2023-02-02T15:35:05.704Z,8.40
2023-02-02T15:37:45.165Z,4.78
2023-02-02T15:40:23.317Z,6.47
2023-02-02T15:43:00.493Z,7.20
2023-02-02T15:45:28.445Z,6.47
2023-02-02T15:47:58.829Z,10.60
2023-02-02T15:50:27.929Z,7.40
2023-02-02T15:52:56.372Z,6.65
2023-02-02T15:55:36.323Z,6.68
2023-02-02T15:58:31.244Z,9.68
2023-02-02T16:01:17.924Z,3.65
2023-02-02T16:04:08.463Z,7.50
2023-02-02T16:06:36.696Z,3.03
2023-02-02T16:09:05.908Z,5.10
2023-02-02T16:11:33.883Z,5.63
2023-02-02T16:14:07.354Z,7.70
2023-02-02T16:16:38.457Z,9.07
2023-02-02T16:19:19.619Z,11.43
2023-02-02T16:22:03.620Z,5.35
2023-02-02T16:24:44.422Z,6.95
2023-02-02T16:27:17.027Z,10.25
2023-02-02T16:29:45.271Z,5.68
2023-02-02T16:32:31.542Z,3.63
2023-02-02T16:35:00.518Z,7.45
2023-02-02T16:37:32.506Z,8.50
2023-02-02T16:40:25.009Z,7.95
2023-02-02T16:43:29.808Z,5.22
2023-02-02T16:46:01.890Z,6.70
2023-02-02T16:48:45.643Z,7.15
2023-02-02T16:51:16.660Z,7.68
2023-02-02T16:53:45.598Z,5.13
2023-02-02T16:56:41.154Z,4.72
2023-02-02T16:59:30.533Z,7.32
2023-02-02T17:02:01.937Z,1.73
2023-02-02T17:12:35.314Z,6.35
2023-02-02T17:15:29.314Z,6.28
2023-02-02T17:17:57.868Z,4.00
2023-02-02T17:20:27.003Z,5.07
2023-02-02T17:23:01.947Z,4.43
2023-02-02T17:28:26.823Z,5.47
2023-02-02T17:31:07.171Z,5.28
2023-02-02T17:33:36.337Z,7.97
2023-02-02T17:36:05.369Z,10.52
2023-02-02T17:38:33.806Z,7.07
2023-02-02T17:41:03.583Z,8.95
2023-02-02T17:43:33.173Z,5.85
2023-02-02T17:46:03.887Z,6.32
2023-02-02T17:48:31.998Z,6.30
2023-02-02T17:50:59.990Z,3.70
2023-02-02T17:53:32.673Z,6.65
2023-02-02T17:56:01.397Z,11.13
2023-02-02T17:58:29.385Z,9.15
2023-02-02T18:00:59.206Z,6.30
2023-02-02T18:03:31.876Z,5.15
2023-02-02T18:06:01.970Z,10.00
2023-02-02T18:08:31.504Z,7.97
2023-02-02T18:11:00.322Z,3.75
2023-02-02T18:13:28.436Z,9.55
2023-02-02T18:15:56.640Z,6.13
2023-02-02T18:18:24.623Z,6.63
2023-02-02T18:20:52.628Z,5.68
2023-02-02T18:23:20.691Z,6.10
2023-02-02T18:25:48.797Z,10.20
2023-02-02T18:28:17.994Z,6.30
2023-02-02T18:30:47.460Z,8.77
2023-02-02T18:33:18.146Z,5.07
2023-02-02T18:35:47.666Z,5.90
2023-02-02T18:38:16.103Z,8.55
2023-02-02T18:40:45.054Z,6.53
2023-02-02T18:43:13.037Z,6.25
2023-02-02T18:45:41.051Z,5.28
2023-02-02T18:48:08.969Z,5.10
2023-02-02T18:50:36.922Z,6.53
2023-02-02T18:53:06.787Z,5.60
2023-02-02T18:55:37.180Z,7.38
2023-02-02T18:58:08.110Z,4.85
2023-02-02T19:00:36.065Z,6.25
2023-02-02T19:03:04.234Z,5.60
2023-02-02T19:05:50.574Z,10.20
2023-02-02T19:08:18.532Z,5.63
2023-02-02T19:10:46.667Z,5.47
2023-02-02T19:13:34.619Z,4.95
2023-02-02T19:16:06.053Z,7.40
2023-02-02T19:18:34.320Z,5.28
2023-02-02T19:21:04.632Z,6.78
2023-02-02T19:23:33.338Z,6.75
2023-02-02T19:26:28.282Z,7.35
2023-02-02T19:32:09.572Z,5.72
2023-02-02T19:34:37.491Z,6.18
2023-02-02T19:37:22.822Z,10.45
2023-02-02T19:39:53.963Z,5.45
2023-02-02T19:42:22.064Z,7.28
2023-02-02T19:44:50.219Z,3.33
2023-02-02T19:47:29.958Z,4.00
2023-02-02T19:49:58.848Z,6.25
2023-02-02T19:52:26.805Z,4.75
2023-02-02T19:54:54.766Z,5.30
2023-02-02T19:57:36.971Z,6.82
2023-02-02T20:00:31.651Z,9.02
2023-02-02T20:03:05.624Z,6.60
2023-02-02T20:05:42.419Z,6.50
2023-02-02T20:08:19.969Z,6.10
2023-02-02T20:10:48.041Z,6.55
2023-02-02T20:13:32.318Z,6.75
2023-02-02T20:16:04.312Z,8.80
2023-02-02T20:18:42.423Z,5.50
2023-02-02T20:24:18.265Z,7.60
2023-02-02T20:26:46.643Z,9.35
2023-02-02T20:29:45.499Z,5.57
2023-02-02T20:32:21.930Z,9.88
2023-02-02T20:37:36.761Z,7.68
2023-02-02T20:40:21.679Z,8.85
2023-02-02T20:42:50.430Z,5.60
2023-02-02T20:45:19.175Z,3.05
2023-02-02T20:47:47.784Z,6.03
2023-02-02T20:50:18.589Z,4.78
2023-02-02T20:52:46.682Z,10.48
2023-02-02T20:55:14.846Z,9.93
2023-02-02T20:58:01.587Z,6.75
2023-02-02T21:00:29.972Z,5.20
2023-02-02T21:02:58.350Z,4.68
2023-02-02T21:05:26.489Z,8.90
2023-02-02T21:07:55.190Z,7.95
2023-02-02T21:10:25.137Z,6.28
2023-02-02T21:12:53.535Z,6.43
2023-02-02T21:15:21.689Z,5.82
2023-02-02T21:18:08.249Z,3.35
2023-02-02T21:20:36.245Z,4.28
2023-02-02T21:23:04.194Z,1.25
2023-02-02T21:25:32.134Z,4.38
2023-02-02T21:28:00.536Z,4.60
2023-02-02T21:30:29.045Z,2.80
2023-02-02T21:32:57.332Z,6.30
2023-02-02T21:35:27.016Z,2.95
2023-02-02T21:37:57.863Z,6.07
2023-02-02T21:40:30.037Z,5.80
2023-02-02T21:43:00.419Z,3.95
2023-02-02T21:45:34.674Z,7.13
2023-02-02T21:48:06.675Z,12.07
2023-02-02T21:53:14.138Z,4.78
2023-02-02T21:55:43.453Z,4.80
2023-02-02T21:58:27.951Z,6.55
2023-02-02T22:01:00.319Z,5.03
2023-02-02T22:03:46.671Z,5.85
2023-02-02T22:06:33.709Z,4.75
2023-02-02T22:09:17.695Z,8.02
2023-02-02T22:12:01.755Z,6.25
2023-02-02T22:14:41.593Z,2.38
2023-02-02T22:17:26.035Z,5.75
2023-02-02T22:20:15.272Z,5.30
2023-02-02T22:22:49.033Z,9.98
2023-02-02T22:25:37.579Z,4.10
2023-02-02T22:28:29.743Z,9.63
2023-02-02T22:30:58.924Z,6.63
2023-02-02T22:33:27.093Z,5.55
2023-02-02T22:35:55.225Z,7.40
2023-02-02T22:38:25.128Z,6.38
2023-02-02T22:41:11.631Z,7.22
2023-02-02T22:43:39.662Z,7.95
2023-02-02T22:46:07.702Z,9.63
2023-02-02T22:48:35.738Z,10.60
2023-02-02T22:51:03.776Z,9.40
2023-02-02T22:53:32.718Z,15.90
2023-02-02T22:56:00.792Z,13.48
2023-02-02T22:58:28.828Z,17.67
2023-02-02T23:00:56.835Z,13.88
2023-02-02T23:03:24.754Z,17.65
2023-02-02T23:06:11.169Z,17.50
2023-02-02T23:08:39.163Z,11.35
2023-02-02T23:11:07.169Z,25.73
2023-02-02T23:13:35.180Z,16.85
2023-02-02T23:16:03.225Z,16.33
2023-02-02T23:18:31.244Z,19.17
2023-02-02T23:20:59.453Z,14.43
2023-02-02T23:23:27.383Z,27.48
2023-02-02T23:25:55.383Z,21.73
2023-02-02T23:28:23.303Z,20.92
2023-02-02T23:30:51.809Z,21.23
2023-02-02T23:33:19.735Z,18.30
2023-02-02T23:36:06.078Z,24.70
2023-02-02T23:38:34.077Z,16.60
2023-02-02T23:41:02.011Z,15.10
2023-02-02T23:43:30.015Z,23.02
2023-02-02T23:45:59.036Z,16.85
2023-02-02T23:48:27.170Z,24.30
2023-02-02T23:50:55.555Z,25.85
2023-02-02T23:53:25.125Z,17.60
2023-02-02T23:55:53.261Z,17.58
2023-02-02T23:58:21.202Z,18.98
